sensor_id;sensor_type;location;lat;lon;timestamp;P1;durP1;ratioP1;P2;durP2;ratioP2
33491;SDS011;20010;51.488;7.232;2023-05-29T00:00:20;9.15;;;8.60;;
33491;SDS011;20010;51.488;7.232;2023-05-29T00:02:47;9.10;;;8.60;;
33491;SDS011;20010;51.488;7.232;2023-05-29T00:05:15;9.80;;;9.00;;
33491;SDS011;20010;51.488;7.232;2023-05-29T00:07:42;10.30;;;9.60;;
33491;SDS011;20010;51.488;7.232;2023-05-29T00:10:09;9.20;;;8.70;;
33491;SDS011;20010;51.488;7.232;2023-05-29T00:12:37;10.13;;;9.43;;
33491;SDS011;20010;51.488;7.232;2023-05-29T00:15:04;9.00;;;8.50;;
33491;SDS011;20010;51.488;7.232;2023-05-29T00:17:31;9.20;;;8.70;;
33491;SDS011;20010;51.488;7.232;2023-05-29T00:20:02;9.80;;;9.07;;
33491;SDS011;20010;51.488;7.232;2023-05-29T00:22:38;9.60;;;8.98;;
33491;SDS011;20010;51.488;7.232;2023-05-29T00:25:05;9.77;;;9.07;;
33491;SDS011;20010;51.488;7.232;2023-05-29T00:27:33;9.38;;;8.77;;
33491;SDS011;20010;51.488;7.232;2023-05-29T00:30:01;9.80;;;9.10;;
33491;SDS011;20010;51.488;7.232;2023-05-29T00:32:27;10.20;;;9.40;;
33491;SDS011;20010;51.488;7.232;2023-05-29T00:34:54;10.05;;;9.20;;
33491;SDS011;20010;51.488;7.232;2023-05-29T00:37:22;10.98;;;8.98;;
33491;SDS011;20010;51.488;7.232;2023-05-29T00:39:48;10.32;;;9.52;;
33491;SDS011;20010;51.488;7.232;2023-05-29T00:42:15;9.23;;;8.73;;
33491;SDS011;20010;51.488;7.232;2023-05-29T00:44:42;9.38;;;8.77;;
33491;SDS011;20010;51.488;7.232;2023-05-29T00:47:08;10.10;;;9.43;;
33491;SDS011;20010;51.488;7.232;2023-05-29T00:49:36;10.55;;;9.77;;
33491;SDS011;20010;51.488;7.232;2023-05-29T00:52:03;10.13;;;9.18;;
33491;SDS011;20010;51.488;7.232;2023-05-29T00:54:30;10.57;;;9.77;;
33491;SDS011;20010;51.488;7.232;2023-05-29T00:56:57;10.48;;;9.57;;
33491;SDS011;20010;51.488;7.232;2023-05-29T00:59:26;10.00;;;9.10;;
33491;SDS011;20010;51.488;7.232;2023-05-29T01:01:53;10.13;;;9.15;;
33491;SDS011;20010;51.488;7.232;2023-05-29T01:04:21;11.07;;;10.27;;
33491;SDS011;20010;51.488;7.232;2023-05-29T01:06:50;12.82;;;10.05;;
33491;SDS011;20010;51.488;7.232;2023-05-29T01:09:17;9.75;;;9.00;;
33491;SDS011;20010;51.488;7.232;2023-05-29T01:17:04;10.55;;;9.32;;
33491;SDS011;20010;51.488;7.232;2023-05-29T01:22:58;10.75;;;9.45;;
33491;SDS011;20010;51.488;7.232;2023-05-29T01:28:08;10.20;;;9.27;;
33491;SDS011;20010;51.488;7.232;2023-05-29T01:30:36;11.93;;;9.45;;
33491;SDS011;20010;51.488;7.232;2023-05-29T01:33:03;10.10;;;9.20;;
33491;SDS011;20010;51.488;7.232;2023-05-29T01:35:30;10.50;;;9.32;;
33491;SDS011;20010;51.488;7.232;2023-05-29T01:37:57;9.63;;;8.82;;
33491;SDS011;20010;51.488;7.232;2023-05-29T01:40:24;11.35;;;10.02;;
33491;SDS011;20010;51.488;7.232;2023-05-29T01:42:50;11.88;;;9.63;;
33491;SDS011;20010;51.488;7.232;2023-05-29T01:45:17;10.25;;;9.20;;
33491;SDS011;20010;51.488;7.232;2023-05-29T01:47:44;9.63;;;8.73;;
33491;SDS011;20010;51.488;7.232;2023-05-29T01:50:10;10.48;;;8.98;;
33491;SDS011;20010;51.488;7.232;2023-05-29T01:52:39;11.60;;;9.20;;
33491;SDS011;20010;51.488;7.232;2023-05-29T01:55:06;11.55;;;9.10;;
33491;SDS011;20010;51.488;7.232;2023-05-29T01:57:34;12.70;;;10.88;;
33491;SDS011;20010;51.488;7.232;2023-05-29T02:00:02;18.30;;;9.50;;
33491;SDS011;20010;51.488;7.232;2023-05-29T02:02:38;10.57;;;8.68;;
33491;SDS011;20010;51.488;7.232;2023-05-29T02:05:05;10.15;;;9.00;;
33491;SDS011;20010;51.488;7.232;2023-05-29T02:07:33;13.80;;;10.38;;
33491;SDS011;20010;51.488;7.232;2023-05-29T02:10:03;12.85;;;9.48;;
33491;SDS011;20010;51.488;7.232;2023-05-29T02:12:31;10.57;;;9.25;;
33491;SDS011;20010;51.488;7.232;2023-05-29T02:14:58;10.45;;;9.52;;
33491;SDS011;20010;51.488;7.232;2023-05-29T02:17:24;11.95;;;9.48;;
33491;SDS011;20010;51.488;7.232;2023-05-29T02:19:51;16.08;;;9.73;;
33491;SDS011;20010;51.488;7.232;2023-05-29T02:22:18;13.10;;;9.23;;
33491;SDS011;20010;51.488;7.232;2023-05-29T02:24:44;9.90;;;9.00;;
33491;SDS011;20010;51.488;7.232;2023-05-29T02:27:11;16.35;;;10.02;;
33491;SDS011;20010;51.488;7.232;2023-05-29T02:29:38;10.45;;;8.80;;
33491;SDS011;20010;51.488;7.232;2023-05-29T02:32:04;13.95;;;9.50;;
33491;SDS011;20010;51.488;7.232;2023-05-29T02:34:31;12.82;;;9.60;;
33491;SDS011;20010;51.488;7.232;2023-05-29T02:36:58;10.23;;;9.23;;
33491;SDS011;20010;51.488;7.232;2023-05-29T02:39:25;15.25;;;9.73;;
33491;SDS011;20010;51.488;7.232;2023-05-29T02:41:51;11.32;;;9.02;;
33491;SDS011;20010;51.488;7.232;2023-05-29T02:44:18;14.93;;;9.50;;
33491;SDS011;20010;51.488;7.232;2023-05-29T02:46:44;14.00;;;9.52;;
33491;SDS011;20010;51.488;7.232;2023-05-29T02:49:11;9.77;;;8.82;;
33491;SDS011;20010;51.488;7.232;2023-05-29T02:51:38;15.55;;;10.13;;
33491;SDS011;20010;51.488;7.232;2023-05-29T02:54:04;11.48;;;8.90;;
33491;SDS011;20010;51.488;7.232;2023-05-29T02:56:31;13.25;;;9.15;;
33491;SDS011;20010;51.488;7.232;2023-05-29T02:58:57;13.73;;;9.45;;
33491;SDS011;20010;51.488;7.232;2023-05-29T03:01:24;15.55;;;9.45;;
33491;SDS011;20010;51.488;7.232;2023-05-29T03:03:51;10.02;;;8.63;;
33491;SDS011;20010;51.488;7.232;2023-05-29T03:06:17;11.70;;;8.50;;
33491;SDS011;20010;51.488;7.232;2023-05-29T03:08:44;10.27;;;9.02;;
33491;SDS011;20010;51.488;7.232;2023-05-29T03:11:11;12.05;;;9.55;;
33491;SDS011;20010;51.488;7.232;2023-05-29T03:13:39;13.00;;;9.07;;
33491;SDS011;20010;51.488;7.232;2023-05-29T03:16:06;13.15;;;9.43;;
33491;SDS011;20010;51.488;7.232;2023-05-29T03:18:34;16.45;;;9.15;;
33491;SDS011;20010;51.488;7.232;2023-05-29T03:21:01;11.57;;;8.88;;
33491;SDS011;20010;51.488;7.232;2023-05-29T03:23:28;15.15;;;9.23;;
33491;SDS011;20010;51.488;7.232;2023-05-29T03:25:54;17.70;;;11.02;;
33491;SDS011;20010;51.488;7.232;2023-05-29T03:28:21;16.20;;;9.45;;
33491;SDS011;20010;51.488;7.232;2023-05-29T03:30:47;10.68;;;9.48;;
33491;SDS011;20010;51.488;7.232;2023-05-29T03:33:14;20.10;;;8.70;;
33491;SDS011;20010;51.488;7.232;2023-05-29T03:35:41;11.25;;;10.02;;
33491;SDS011;20010;51.488;7.232;2023-05-29T03:38:07;9.90;;;8.85;;
33491;SDS011;20010;51.488;7.232;2023-05-29T03:40:34;14.40;;;9.32;;
33491;SDS011;20010;51.488;7.232;2023-05-29T03:43:00;14.07;;;9.90;;
33491;SDS011;20010;51.488;7.232;2023-05-29T03:45:27;13.02;;;9.35;;
33491;SDS011;20010;51.488;7.232;2023-05-29T03:47:53;9.65;;;8.75;;
33491;SDS011;20010;51.488;7.232;2023-05-29T03:50:20;10.23;;;8.55;;
33491;SDS011;20010;51.488;7.232;2023-05-29T03:52:47;15.30;;;10.30;;
33491;SDS011;20010;51.488;7.232;2023-05-29T03:55:13;10.48;;;9.07;;
33491;SDS011;20010;51.488;7.232;2023-05-29T03:57:41;15.27;;;9.73;;
33491;SDS011;20010;51.488;7.232;2023-05-29T04:00:08;13.38;;;9.88;;
33491;SDS011;20010;51.488;7.232;2023-05-29T04:02:36;14.63;;;9.60;;
33491;SDS011;20010;51.488;7.232;2023-05-29T04:05:05;10.93;;;8.95;;
33491;SDS011;20010;51.488;7.232;2023-05-29T04:07:32;12.75;;;9.73;;
33491;SDS011;20010;51.488;7.232;2023-05-29T04:09:59;17.40;;;9.93;;
33491;SDS011;20010;51.488;7.232;2023-05-29T04:12:26;13.15;;;10.45;;
33491;SDS011;20010;51.488;7.232;2023-05-29T04:14:52;18.02;;;9.60;;
33491;SDS011;20010;51.488;7.232;2023-05-29T04:17:19;13.55;;;9.40;;
33491;SDS011;20010;51.488;7.232;2023-05-29T04:19:46;12.70;;;9.25;;
33491;SDS011;20010;51.488;7.232;2023-05-29T04:22:12;15.52;;;8.57;;
33491;SDS011;20010;51.488;7.232;2023-05-29T04:24:39;11.60;;;8.30;;
33491;SDS011;20010;51.488;7.232;2023-05-29T04:27:06;14.63;;;8.95;;
33491;SDS011;20010;51.488;7.232;2023-05-29T04:29:35;16.83;;;9.38;;
33491;SDS011;20010;51.488;7.232;2023-05-29T04:32:01;21.80;;;9.30;;
33491;SDS011;20010;51.488;7.232;2023-05-29T04:34:29;21.75;;;10.73;;
33491;SDS011;20010;51.488;7.232;2023-05-29T04:36:57;12.65;;;9.18;;
33491;SDS011;20010;51.488;7.232;2023-05-29T04:39:24;11.85;;;9.05;;
33491;SDS011;20010;51.488;7.232;2023-05-29T04:41:51;15.95;;;9.27;;
33491;SDS011;20010;51.488;7.232;2023-05-29T04:44:17;11.75;;;8.60;;
33491;SDS011;20010;51.488;7.232;2023-05-29T04:46:44;13.50;;;8.88;;
33491;SDS011;20010;51.488;7.232;2023-05-29T04:49:11;14.30;;;10.23;;
33491;SDS011;20010;51.488;7.232;2023-05-29T04:51:39;13.00;;;9.23;;
33491;SDS011;20010;51.488;7.232;2023-05-29T04:54:09;12.10;;;8.95;;
33491;SDS011;20010;51.488;7.232;2023-05-29T04:56:36;16.38;;;9.20;;
33491;SDS011;20010;51.488;7.232;2023-05-29T04:59:03;10.30;;;8.25;;
33491;SDS011;20010;51.488;7.232;2023-05-29T05:01:31;17.17;;;9.05;;
33491;SDS011;20010;51.488;7.232;2023-05-29T05:04:00;9.07;;;8.18;;
33491;SDS011;20010;51.488;7.232;2023-05-29T05:06:27;16.80;;;10.02;;
33491;SDS011;20010;51.488;7.232;2023-05-29T05:08:53;15.73;;;9.88;;
33491;SDS011;20010;51.488;7.232;2023-05-29T05:11:21;14.65;;;8.45;;
33491;SDS011;20010;51.488;7.232;2023-05-29T05:13:49;11.63;;;9.63;;
33491;SDS011;20010;51.488;7.232;2023-05-29T05:16:15;14.23;;;9.93;;
33491;SDS011;20010;51.488;7.232;2023-05-29T05:18:45;15.65;;;9.25;;
33491;SDS011;20010;51.488;7.232;2023-05-29T05:21:12;14.00;;;9.77;;
33491;SDS011;20010;51.488;7.232;2023-05-29T05:23:38;10.55;;;9.48;;
33491;SDS011;20010;51.488;7.232;2023-05-29T05:26:22;17.85;;;9.32;;
33491;SDS011;20010;51.488;7.232;2023-05-29T05:28:48;12.93;;;8.88;;
33491;SDS011;20010;51.488;7.232;2023-05-29T05:31:15;11.48;;;8.40;;
33491;SDS011;20010;51.488;7.232;2023-05-29T05:33:42;15.93;;;9.30;;
33491;SDS011;20010;51.488;7.232;2023-05-29T05:36:08;14.30;;;8.00;;
33491;SDS011;20010;51.488;7.232;2023-05-29T05:38:35;15.13;;;8.70;;
33491;SDS011;20010;51.488;7.232;2023-05-29T05:41:02;11.25;;;8.52;;
33491;SDS011;20010;51.488;7.232;2023-05-29T05:43:28;11.77;;;9.02;;
33491;SDS011;20010;51.488;7.232;2023-05-29T05:45:56;14.00;;;8.88;;
33491;SDS011;20010;51.488;7.232;2023-05-29T05:48:22;13.27;;;8.65;;
33491;SDS011;20010;51.488;7.232;2023-05-29T05:50:49;10.05;;;8.23;;
33491;SDS011;20010;51.488;7.232;2023-05-29T05:53:16;11.93;;;9.02;;
33491;SDS011;20010;51.488;7.232;2023-05-29T05:55:43;12.02;;;9.82;;
33491;SDS011;20010;51.488;7.232;2023-05-29T05:58:10;11.75;;;9.13;;
33491;SDS011;20010;51.488;7.232;2023-05-29T06:00:36;17.60;;;8.70;;
33491;SDS011;20010;51.488;7.232;2023-05-29T06:03:03;12.02;;;9.07;;
33491;SDS011;20010;51.488;7.232;2023-05-29T06:05:30;11.43;;;8.98;;
33491;SDS011;20010;51.488;7.232;2023-05-29T06:07:56;15.35;;;9.35;;
33491;SDS011;20010;51.488;7.232;2023-05-29T06:10:23;16.50;;;9.93;;
33491;SDS011;20010;51.488;7.232;2023-05-29T06:12:50;11.93;;;9.07;;
33491;SDS011;20010;51.488;7.232;2023-05-29T06:15:16;15.52;;;9.23;;
33491;SDS011;20010;51.488;7.232;2023-05-29T06:17:43;11.25;;;9.98;;
33491;SDS011;20010;51.488;7.232;2023-05-29T06:20:10;11.30;;;9.65;;
33491;SDS011;20010;51.488;7.232;2023-05-29T06:22:37;13.75;;;9.18;;
33491;SDS011;20010;51.488;7.232;2023-05-29T06:25:04;13.57;;;9.10;;
33491;SDS011;20010;51.488;7.232;2023-05-29T06:27:33;10.90;;;8.40;;
33491;SDS011;20010;51.488;7.232;2023-05-29T06:30:00;12.43;;;8.57;;
33491;SDS011;20010;51.488;7.232;2023-05-29T06:32:27;15.10;;;8.73;;
33491;SDS011;20010;51.488;7.232;2023-05-29T06:34:54;10.90;;;8.43;;
33491;SDS011;20010;51.488;7.232;2023-05-29T06:37:21;13.82;;;9.20;;
33491;SDS011;20010;51.488;7.232;2023-05-29T06:39:47;13.18;;;9.10;;
33491;SDS011;20010;51.488;7.232;2023-05-29T06:42:14;15.27;;;9.88;;
33491;SDS011;20010;51.488;7.232;2023-05-29T06:44:41;11.35;;;9.00;;
33491;SDS011;20010;51.488;7.232;2023-05-29T06:47:07;13.82;;;9.25;;
33491;SDS011;20010;51.488;7.232;2023-05-29T06:49:34;14.73;;;9.23;;
33491;SDS011;20010;51.488;7.232;2023-05-29T06:52:01;12.25;;;8.75;;
33491;SDS011;20010;51.488;7.232;2023-05-29T06:54:27;14.32;;;11.00;;
33491;SDS011;20010;51.488;7.232;2023-05-29T06:56:54;12.82;;;9.52;;
33491;SDS011;20010;51.488;7.232;2023-05-29T06:59:35;11.57;;;8.95;;
33491;SDS011;20010;51.488;7.232;2023-05-29T07:02:01;11.10;;;8.13;;
33491;SDS011;20010;51.488;7.232;2023-05-29T07:04:28;13.90;;;8.82;;
33491;SDS011;20010;51.488;7.232;2023-05-29T07:06:55;14.95;;;8.95;;
33491;SDS011;20010;51.488;7.232;2023-05-29T07:09:21;13.23;;;8.18;;
33491;SDS011;20010;51.488;7.232;2023-05-29T07:11:48;13.70;;;9.43;;
33491;SDS011;20010;51.488;7.232;2023-05-29T07:14:14;12.07;;;8.93;;
33491;SDS011;20010;51.488;7.232;2023-05-29T07:16:42;10.02;;;8.40;;
33491;SDS011;20010;51.488;7.232;2023-05-29T07:19:08;11.25;;;8.95;;
33491;SDS011;20010;51.488;7.232;2023-05-29T07:21:46;11.95;;;8.90;;
33491;SDS011;20010;51.488;7.232;2023-05-29T07:24:13;9.05;;;8.00;;
33491;SDS011;20010;51.488;7.232;2023-05-29T07:26:40;12.52;;;8.90;;
33491;SDS011;20010;51.488;7.232;2023-05-29T07:29:06;12.85;;;8.38;;
33491;SDS011;20010;51.488;7.232;2023-05-29T07:31:33;9.02;;;7.43;;
33491;SDS011;20010;51.488;7.232;2023-05-29T07:33:59;12.73;;;8.95;;
33491;SDS011;20010;51.488;7.232;2023-05-29T07:36:29;11.52;;;8.68;;
33491;SDS011;20010;51.488;7.232;2023-05-29T07:38:56;11.60;;;8.50;;
33491;SDS011;20010;51.488;7.232;2023-05-29T07:41:24;12.88;;;8.68;;
33491;SDS011;20010;51.488;7.232;2023-05-29T07:43:52;12.45;;;8.43;;
33491;SDS011;20010;51.488;7.232;2023-05-29T07:46:20;13.40;;;8.90;;
33491;SDS011;20010;51.488;7.232;2023-05-29T07:48:46;11.02;;;8.50;;
33491;SDS011;20010;51.488;7.232;2023-05-29T07:51:13;12.48;;;8.77;;
33491;SDS011;20010;51.488;7.232;2023-05-29T07:53:40;15.02;;;9.88;;
33491;SDS011;20010;51.488;7.232;2023-05-29T07:56:06;11.93;;;8.13;;
33491;SDS011;20010;51.488;7.232;2023-05-29T07:58:33;11.63;;;8.80;;
33491;SDS011;20010;51.488;7.232;2023-05-29T08:01:00;10.98;;;7.65;;
33491;SDS011;20010;51.488;7.232;2023-05-29T08:03:26;12.10;;;7.97;;
33491;SDS011;20010;51.488;7.232;2023-05-29T08:05:53;10.75;;;8.60;;
33491;SDS011;20010;51.488;7.232;2023-05-29T08:08:20;12.60;;;8.27;;
33491;SDS011;20010;51.488;7.232;2023-05-29T08:10:46;13.65;;;8.43;;
33491;SDS011;20010;51.488;7.232;2023-05-29T08:13:13;11.93;;;7.82;;
33491;SDS011;20010;51.488;7.232;2023-05-29T08:15:40;11.60;;;8.77;;
33491;SDS011;20010;51.488;7.232;2023-05-29T08:18:06;10.88;;;8.18;;
33491;SDS011;20010;51.488;7.232;2023-05-29T08:20:33;11.32;;;8.52;;
33491;SDS011;20010;51.488;7.232;2023-05-29T08:23:01;16.25;;;9.15;;
33491;SDS011;20010;51.488;7.232;2023-05-29T08:25:27;9.20;;;8.20;;
33491;SDS011;20010;51.488;7.232;2023-05-29T08:27:54;13.30;;;8.02;;
33491;SDS011;20010;51.488;7.232;2023-05-29T08:30:21;11.35;;;8.65;;
33491;SDS011;20010;51.488;7.232;2023-05-29T08:32:48;12.05;;;8.20;;
33491;SDS011;20010;51.488;7.232;2023-05-29T08:35:16;11.98;;;8.10;;
33491;SDS011;20010;51.488;7.232;2023-05-29T08:37:43;11.65;;;8.52;;
33491;SDS011;20010;51.488;7.232;2023-05-29T08:40:10;10.45;;;8.02;;
33491;SDS011;20010;51.488;7.232;2023-05-29T08:42:40;12.60;;;9.52;;
33491;SDS011;20010;51.488;7.232;2023-05-29T08:45:12;8.65;;;7.80;;
33491;SDS011;20010;51.488;7.232;2023-05-29T08:47:40;11.85;;;9.13;;
33491;SDS011;20010;51.488;7.232;2023-05-29T08:50:11;13.02;;;10.98;;
33491;SDS011;20010;51.488;7.232;2023-05-29T08:52:38;10.05;;;8.90;;
33491;SDS011;20010;51.488;7.232;2023-05-29T08:55:05;10.68;;;8.45;;
33491;SDS011;20010;51.488;7.232;2023-05-29T08:57:32;10.75;;;8.32;;
33491;SDS011;20010;51.488;7.232;2023-05-29T08:59:59;10.18;;;7.95;;
33491;SDS011;20010;51.488;7.232;2023-05-29T09:02:26;12.30;;;8.13;;
33491;SDS011;20010;51.488;7.232;2023-05-29T09:04:53;8.65;;;7.80;;
33491;SDS011;20010;51.488;7.232;2023-05-29T09:07:21;8.18;;;7.43;;
33491;SDS011;20010;51.488;7.232;2023-05-29T09:09:48;13.52;;;8.07;;
33491;SDS011;20010;51.488;7.232;2023-05-29T09:12:15;9.32;;;8.25;;
33491;SDS011;20010;51.488;7.232;2023-05-29T09:14:43;9.73;;;8.10;;
33491;SDS011;20010;51.488;7.232;2023-05-29T09:17:11;9.95;;;7.72;;
33491;SDS011;20010;51.488;7.232;2023-05-29T09:19:39;16.02;;;8.00;;
33491;SDS011;20010;51.488;7.232;2023-05-29T09:22:08;9.15;;;8.25;;
33491;SDS011;20010;51.488;7.232;2023-05-29T09:24:36;11.35;;;7.80;;
33491;SDS011;20010;51.488;7.232;2023-05-29T09:27:05;10.55;;;8.50;;
33491;SDS011;20010;51.488;7.232;2023-05-29T09:29:52;11.45;;;7.75;;
33491;SDS011;20010;51.488;7.232;2023-05-29T09:32:18;8.18;;;7.43;;
33491;SDS011;20010;51.488;7.232;2023-05-29T09:34:45;10.38;;;7.43;;
33491;SDS011;20010;51.488;7.232;2023-05-29T09:37:12;9.50;;;7.45;;
33491;SDS011;20010;51.488;7.232;2023-05-29T09:42:08;14.63;;;7.82;;
33491;SDS011;20010;51.488;7.232;2023-05-29T09:44:35;13.27;;;8.27;;
33491;SDS011;20010;51.488;7.232;2023-05-29T09:47:02;11.02;;;8.80;;
33491;SDS011;20010;51.488;7.232;2023-05-29T09:49:31;12.00;;;8.80;;
33491;SDS011;20010;51.488;7.232;2023-05-29T09:51:58;11.20;;;7.63;;
33491;SDS011;20010;51.488;7.232;2023-05-29T09:54:27;10.38;;;7.82;;
33491;SDS011;20010;51.488;7.232;2023-05-29T09:56:56;10.70;;;8.00;;
33491;SDS011;20010;51.488;7.232;2023-05-29T09:59:24;10.35;;;7.85;;
33491;SDS011;20010;51.488;7.232;2023-05-29T10:02:00;15.05;;;8.68;;
33491;SDS011;20010;51.488;7.232;2023-05-29T10:04:30;10.18;;;7.25;;
33491;SDS011;20010;51.488;7.232;2023-05-29T10:07:04;13.80;;;7.38;;
33491;SDS011;20010;51.488;7.232;2023-05-29T10:09:34;7.65;;;6.85;;
33491;SDS011;20010;51.488;7.232;2023-05-29T10:12:05;14.65;;;7.25;;
33491;SDS011;20010;51.488;7.232;2023-05-29T10:14:34;11.02;;;8.27;;
33491;SDS011;20010;51.488;7.232;2023-05-29T10:17:01;10.07;;;7.38;;
33491;SDS011;20010;51.488;7.232;2023-05-29T10:19:29;11.85;;;8.25;;
33491;SDS011;20010;51.488;7.232;2023-05-29T10:22:01;11.70;;;7.60;;
33491;SDS011;20010;51.488;7.232;2023-05-29T10:24:28;10.38;;;7.45;;
33491;SDS011;20010;51.488;7.232;2023-05-29T10:26:54;11.70;;;7.28;;
33491;SDS011;20010;51.488;7.232;2023-05-29T10:29:34;9.98;;;7.45;;
33491;SDS011;20010;51.488;7.232;2023-05-29T10:34:44;13.02;;;8.60;;
33491;SDS011;20010;51.488;7.232;2023-05-29T10:39:52;10.43;;;7.68;;
33491;SDS011;20010;51.488;7.232;2023-05-29T10:50:41;11.40;;;8.70;;
33491;SDS011;20010;51.488;7.232;2023-05-29T10:53:09;9.27;;;7.43;;
33491;SDS011;20010;51.488;7.232;2023-05-29T10:55:37;7.95;;;7.10;;
33491;SDS011;20010;51.488;7.232;2023-05-29T10:58:07;10.05;;;7.38;;
33491;SDS011;20010;51.488;7.232;2023-05-29T11:00:39;8.43;;;7.63;;
33491;SDS011;20010;51.488;7.232;2023-05-29T11:03:09;8.82;;;7.57;;
33491;SDS011;20010;51.488;7.232;2023-05-29T11:08:32;11.40;;;8.35;;
33491;SDS011;20010;51.488;7.232;2023-05-29T11:11:10;8.50;;;6.90;;
33491;SDS011;20010;51.488;7.232;2023-05-29T11:13:38;8.50;;;7.60;;
33491;SDS011;20010;51.488;7.232;2023-05-29T11:16:20;11.15;;;7.50;;
33491;SDS011;20010;51.488;7.232;2023-05-29T11:19:04;12.25;;;7.85;;
33491;SDS011;20010;51.488;7.232;2023-05-29T11:24:15;11.15;;;8.15;;
33491;SDS011;20010;51.488;7.232;2023-05-29T11:26:45;11.52;;;7.55;;
33491;SDS011;20010;51.488;7.232;2023-05-29T11:29:12;8.48;;;7.43;;
33491;SDS011;20010;51.488;7.232;2023-05-29T11:31:39;9.88;;;7.97;;
33491;SDS011;20010;51.488;7.232;2023-05-29T11:34:08;11.73;;;7.45;;
33491;SDS011;20010;51.488;7.232;2023-05-29T11:36:36;12.07;;;8.15;;
33491;SDS011;20010;51.488;7.232;2023-05-29T11:39:03;10.07;;;7.72;;
33491;SDS011;20010;51.488;7.232;2023-05-29T11:41:30;8.35;;;7.53;;
33491;SDS011;20010;51.488;7.232;2023-05-29T11:44:00;11.32;;;8.32;;
33491;SDS011;20010;51.488;7.232;2023-05-29T11:46:35;11.07;;;8.38;;
33491;SDS011;20010;51.488;7.232;2023-05-29T11:49:01;9.95;;;8.07;;
33491;SDS011;20010;51.488;7.232;2023-05-29T11:51:28;12.48;;;7.55;;
33491;SDS011;20010;51.488;7.232;2023-05-29T11:53:55;10.10;;;8.25;;
33491;SDS011;20010;51.488;7.232;2023-05-29T11:56:25;9.98;;;7.13;;
33491;SDS011;20010;51.488;7.232;2023-05-29T11:58:54;7.90;;;6.45;;
33491;SDS011;20010;51.488;7.232;2023-05-29T12:01:23;9.32;;;7.28;;
33491;SDS011;20010;51.488;7.232;2023-05-29T12:03:51;9.15;;;7.18;;
33491;SDS011;20010;51.488;7.232;2023-05-29T12:06:31;8.95;;;6.43;;
33491;SDS011;20010;51.488;7.232;2023-05-29T12:08:59;7.57;;;6.80;;
33491;SDS011;20010;51.488;7.232;2023-05-29T12:11:27;9.40;;;6.60;;
33491;SDS011;20010;51.488;7.232;2023-05-29T12:13:59;14.18;;;6.55;;
33491;SDS011;20010;51.488;7.232;2023-05-29T12:16:30;10.52;;;8.27;;
33491;SDS011;20010;51.488;7.232;2023-05-29T12:18:59;7.95;;;7.13;;
33491;SDS011;20010;51.488;7.232;2023-05-29T12:21:26;7.78;;;7.05;;
33491;SDS011;20010;51.488;7.232;2023-05-29T12:23:53;9.65;;;6.88;;
33491;SDS011;20010;51.488;7.232;2023-05-29T12:26:39;8.88;;;7.05;;
33491;SDS011;20010;51.488;7.232;2023-05-29T12:29:05;7.93;;;6.95;;
33491;SDS011;20010;51.488;7.232;2023-05-29T12:31:32;7.80;;;6.40;;
33491;SDS011;20010;51.488;7.232;2023-05-29T12:34:22;8.85;;;6.78;;
33491;SDS011;20010;51.488;7.232;2023-05-29T12:36:47;8.75;;;7.40;;
33491;SDS011;20010;51.488;7.232;2023-05-29T12:39:14;7.05;;;6.47;;
33491;SDS011;20010;51.488;7.232;2023-05-29T12:41:41;6.88;;;6.28;;
33491;SDS011;20010;51.488;7.232;2023-05-29T12:44:07;7.55;;;6.25;;
33491;SDS011;20010;51.488;7.232;2023-05-29T12:46:48;6.95;;;6.40;;
33491;SDS011;20010;51.488;7.232;2023-05-29T12:49:16;8.32;;;7.53;;
33491;SDS011;20010;51.488;7.232;2023-05-29T12:51:45;9.82;;;7.40;;
33491;SDS011;20010;51.488;7.232;2023-05-29T12:54:16;11.02;;;8.50;;
33491;SDS011;20010;51.488;7.232;2023-05-29T12:56:43;7.57;;;6.88;;
33491;SDS011;20010;51.488;7.232;2023-05-29T12:59:11;8.98;;;7.72;;
33491;SDS011;20010;51.488;7.232;2023-05-29T13:01:39;8.93;;;6.80;;
33491;SDS011;20010;51.488;7.232;2023-05-29T13:04:07;7.68;;;6.93;;
33491;SDS011;20010;51.488;7.232;2023-05-29T13:06:34;9.55;;;7.05;;
33491;SDS011;20010;51.488;7.232;2023-05-29T13:09:02;7.45;;;6.75;;
33491;SDS011;20010;51.488;7.232;2023-05-29T13:11:28;10.10;;;6.78;;
33491;SDS011;20010;51.488;7.232;2023-05-29T13:13:55;9.93;;;6.75;;
33491;SDS011;20010;51.488;7.232;2023-05-29T13:16:21;8.93;;;8.13;;
33491;SDS011;20010;51.488;7.232;2023-05-29T13:18:49;8.80;;;7.47;;
33491;SDS011;20010;51.488;7.232;2023-05-29T13:21:15;10.60;;;7.60;;
33491;SDS011;20010;51.488;7.232;2023-05-29T13:23:42;7.03;;;6.05;;
33491;SDS011;20010;51.488;7.232;2023-05-29T13:26:08;9.32;;;7.20;;
33491;SDS011;20010;51.488;7.232;2023-05-29T13:28:35;7.50;;;6.78;;
33491;SDS011;20010;51.488;7.232;2023-05-29T13:31:02;8.13;;;6.70;;
33491;SDS011;20010;51.488;7.232;2023-05-29T13:33:28;9.00;;;7.60;;
33491;SDS011;20010;51.488;7.232;2023-05-29T13:35:55;7.03;;;6.40;;
33491;SDS011;20010;51.488;7.232;2023-05-29T13:38:23;8.02;;;7.00;;
33491;SDS011;20010;51.488;7.232;2023-05-29T13:40:56;7.10;;;6.40;;
33491;SDS011;20010;51.488;7.232;2023-05-29T13:43:22;8.10;;;7.03;;
33491;SDS011;20010;51.488;7.232;2023-05-29T13:46:05;8.85;;;6.90;;
33491;SDS011;20010;51.488;7.232;2023-05-29T13:48:31;7.82;;;7.05;;
33491;SDS011;20010;51.488;7.232;2023-05-29T13:51:00;7.68;;;6.60;;
33491;SDS011;20010;51.488;7.232;2023-05-29T13:53:27;7.72;;;6.78;;
33491;SDS011;20010;51.488;7.232;2023-05-29T13:55:53;8.63;;;7.82;;
33491;SDS011;20010;51.488;7.232;2023-05-29T13:58:20;7.30;;;6.55;;
33491;SDS011;20010;51.488;7.232;2023-05-29T14:00:47;8.40;;;7.30;;
33491;SDS011;20010;51.488;7.232;2023-05-29T14:03:13;7.43;;;6.53;;
33491;SDS011;20010;51.488;7.232;2023-05-29T14:05:40;7.00;;;6.30;;
33491;SDS011;20010;51.488;7.232;2023-05-29T14:08:07;6.93;;;6.22;;
33491;SDS011;20010;51.488;7.232;2023-05-29T14:10:33;8.13;;;7.13;;
33491;SDS011;20010;51.488;7.232;2023-05-29T14:13:01;8.48;;;6.78;;
33491;SDS011;20010;51.488;7.232;2023-05-29T14:15:27;9.45;;;7.03;;
33491;SDS011;20010;51.488;7.232;2023-05-29T14:17:54;7.15;;;6.45;;
33491;SDS011;20010;51.488;7.232;2023-05-29T14:20:20;7.38;;;6.65;;
33491;SDS011;20010;51.488;7.232;2023-05-29T14:22:47;9.10;;;6.75;;
33491;SDS011;20010;51.488;7.232;2023-05-29T14:25:14;8.98;;;7.32;;
33491;SDS011;20010;51.488;7.232;2023-05-29T14:27:41;10.82;;;6.68;;
33491;SDS011;20010;51.488;7.232;2023-05-29T14:30:07;7.97;;;6.70;;
33491;SDS011;20010;51.488;7.232;2023-05-29T14:32:34;8.40;;;7.10;;
33491;SDS011;20010;51.488;7.232;2023-05-29T14:35:01;10.35;;;7.35;;
33491;SDS011;20010;51.488;7.232;2023-05-29T14:37:28;7.80;;;7.00;;
33491;SDS011;20010;51.488;7.232;2023-05-29T14:39:55;10.63;;;7.25;;
33491;SDS011;20010;51.488;7.232;2023-05-29T14:42:22;6.93;;;6.25;;
33491;SDS011;20010;51.488;7.232;2023-05-29T14:44:49;9.15;;;6.78;;
33491;SDS011;20010;51.488;7.232;2023-05-29T14:47:15;7.40;;;6.72;;
33491;SDS011;20010;51.488;7.232;2023-05-29T14:49:44;7.72;;;6.50;;
33491;SDS011;20010;51.488;7.232;2023-05-29T14:52:11;9.27;;;7.18;;
33491;SDS011;20010;51.488;7.232;2023-05-29T14:54:37;7.55;;;6.28;;
33491;SDS011;20010;51.488;7.232;2023-05-29T14:57:04;8.82;;;6.70;;
33491;SDS011;20010;51.488;7.232;2023-05-29T14:59:31;8.60;;;6.40;;
33491;SDS011;20010;51.488;7.232;2023-05-29T15:01:58;7.10;;;6.20;;
33491;SDS011;20010;51.488;7.232;2023-05-29T15:04:26;7.18;;;6.32;;
33491;SDS011;20010;51.488;7.232;2023-05-29T15:06:52;7.30;;;5.75;;
33491;SDS011;20010;51.488;7.232;2023-05-29T15:09:31;8.55;;;7.65;;
33491;SDS011;20010;51.488;7.232;2023-05-29T15:11:58;12.52;;;8.13;;
33491;SDS011;20010;51.488;7.232;2023-05-29T15:14:25;6.70;;;6.10;;